createdAt,value
2022-09-26T00:03:54.744Z,6.73
2022-09-26T00:07:55.964Z,7.30
2022-09-26T00:11:57.326Z,7.83
2022-09-26T00:15:58.595Z,6.33
2022-09-26T00:20:00.076Z,7.03
2022-09-26T00:24:01.823Z,7.07
2022-09-26T00:28:02.999Z,6.83
2022-09-26T00:32:04.087Z,7.17
2022-09-26T00:36:06.376Z,7.60
2022-09-26T00:40:08.477Z,8.10
2022-09-26T00:44:33.078Z,7.60
2022-09-26T00:48:36.577Z,7.23
2022-09-26T00:52:41.597Z,8.13
2022-09-26T00:56:46.281Z,7.97
2022-09-26T01:00:49.300Z,8.50
2022-09-26T01:04:51.666Z,7.60
2022-09-26T01:08:59.629Z,7.70
2022-09-26T01:13:01.798Z,7.83
2022-09-26T01:17:03.630Z,6.93
2022-09-26T01:21:31.371Z,8.93
2022-09-26T01:26:09.718Z,7.30
2022-09-26T01:30:17.687Z,7.70
2022-09-26T01:34:25.657Z,8.60
2022-09-26T01:38:48.449Z,8.27
2022-09-26T01:43:11.755Z,7.20
2022-09-26T01:47:16.654Z,8.23
2022-09-26T01:51:27.615Z,7.93
2022-09-26T01:55:33.907Z,8.53
2022-09-26T01:59:44.917Z,9.00
2022-09-26T02:03:49.988Z,9.13
2022-09-26T02:08:00.688Z,8.80
2022-09-26T02:12:05.381Z,8.60
2022-09-26T02:16:10.162Z,8.93
2022-09-26T02:20:18.167Z,8.10
2022-09-26T02:24:19.665Z,8.10
2022-09-26T02:28:21.334Z,9.10
2022-09-26T02:32:26.320Z,9.20
2022-09-26T02:36:28.200Z,8.00
2022-09-26T02:40:36.233Z,8.97
2022-09-26T02:45:00.363Z,9.40
2022-09-26T02:49:10.980Z,9.73
2022-09-26T02:53:22.023Z,8.93
2022-09-26T02:57:39.352Z,9.20
2022-09-26T03:01:51.762Z,8.67
2022-09-26T03:05:56.082Z,10.10
2022-09-26T03:10:00.529Z,9.50
2022-09-26T03:14:03.121Z,9.50
2022-09-26T03:18:08.040Z,9.27
2022-09-26T03:22:09.765Z,9.60
2022-09-26T03:26:13.277Z,9.83
2022-09-26T03:30:16.364Z,10.37
2022-09-26T03:34:17.527Z,9.77
2022-09-26T03:38:18.701Z,8.93
2022-09-26T03:42:19.887Z,10.00
2022-09-26T03:46:20.955Z,9.13
2022-09-26T03:50:22.450Z,9.13
2022-09-26T03:54:23.637Z,9.37
2022-09-26T03:58:24.834Z,9.43
2022-09-26T04:02:26.148Z,9.20
2022-09-26T04:06:28.120Z,9.50
2022-09-26T04:10:29.372Z,9.80
2022-09-26T04:14:30.896Z,10.40
2022-09-26T04:18:32.873Z,10.80
2022-09-26T04:22:34.075Z,10.03
2022-09-26T04:26:35.374Z,9.73
2022-09-26T04:30:36.896Z,9.97
2022-09-26T04:34:39.559Z,10.50
2022-09-26T04:38:40.771Z,10.60
2022-09-26T04:42:42.007Z,11.77
2022-09-26T04:46:43.856Z,11.10
2022-09-26T04:50:45.792Z,11.80
2022-09-26T04:54:46.854Z,13.00
2022-09-26T04:58:48.761Z,10.83
2022-09-26T05:02:49.947Z,12.20
2022-09-26T05:06:51.120Z,11.37
2022-09-26T05:10:54.496Z,10.30
2022-09-26T05:14:55.948Z,10.23
2022-09-26T05:18:57.276Z,11.00
2022-09-26T05:22:58.479Z,10.67
2022-09-26T05:26:59.755Z,10.73
2022-09-26T05:31:01.345Z,9.43
2022-09-26T05:35:04.702Z,10.40
2022-09-26T05:39:08.082Z,9.73
2022-09-26T05:43:10.934Z,10.63
2022-09-26T05:47:12.412Z,9.97
2022-09-26T05:51:15.952Z,10.00
2022-09-26T05:55:17.133Z,10.63
2022-09-26T05:59:18.351Z,11.13
2022-09-26T06:03:19.725Z,9.47
2022-09-26T06:07:20.992Z,9.67
2022-09-26T06:11:24.227Z,10.40
2022-09-26T06:15:25.402Z,9.13
2022-09-26T06:19:26.588Z,8.83
2022-09-26T06:23:27.976Z,10.23
2022-09-26T06:27:29.160Z,9.50
2022-09-26T06:31:30.478Z,8.70
2022-09-26T06:35:32.608Z,8.37
2022-09-26T06:39:36.561Z,9.33
2022-09-26T06:43:39.045Z,9.07
2022-09-26T06:47:40.312Z,10.57
2022-09-26T06:51:41.889Z,9.43
2022-09-26T06:55:43.265Z,8.60
2022-09-26T06:59:44.503Z,8.27
2022-09-26T07:03:46.229Z,8.77
2022-09-26T07:07:48.391Z,7.90
2022-09-26T07:12:13.999Z,7.50
2022-09-26T07:15:56.683Z,7.60
2022-09-26T07:19:57.917Z,6.63
2022-09-26T07:23:59.088Z,7.50
2022-09-26T07:28:00.989Z,7.63
2022-09-26T07:32:02.222Z,6.87
2022-09-26T07:36:05.679Z,5.53
2022-09-26T07:40:07.316Z,5.60
2022-09-26T07:48:29.954Z,5.50
2022-09-26T07:52:31.132Z,5.07
2022-09-26T07:56:33.739Z,5.47
2022-09-26T08:00:35.694Z,4.40
2022-09-26T08:04:36.857Z,4.70
2022-09-26T08:08:38.136Z,4.50
2022-09-26T08:12:39.334Z,4.43
2022-09-26T08:16:41.088Z,4.43
2022-09-26T08:20:44.197Z,4.73
2022-09-26T08:24:47.302Z,4.90
2022-09-26T08:28:48.770Z,4.70
2022-09-26T08:32:53.979Z,5.00
2022-09-26T08:36:55.256Z,4.53
2022-09-26T08:41:16.914Z,4.43
2022-09-26T08:45:57.140Z,4.80
2022-09-26T08:50:20.305Z,4.17
2022-09-26T08:54:33.877Z,4.40
2022-09-26T08:58:41.863Z,4.87
2022-09-26T09:02:52.876Z,4.83
2022-09-26T09:07:00.224Z,5.33
2022-09-26T09:11:11.023Z,5.00
2022-09-26T09:15:32.621Z,4.83
2022-09-26T09:20:02.722Z,5.27
2022-09-26T09:24:27.563Z,3.60
2022-09-26T09:28:56.105Z,4.60
2022-09-26T09:33:06.761Z,5.67
2022-09-26T09:37:24.922Z,4.73
2022-09-26T09:41:38.001Z,3.47
2022-09-26T09:45:45.166Z,5.00
2022-09-26T09:49:53.267Z,5.37
2022-09-26T09:54:16.686Z,5.10
2022-09-26T09:58:44.642Z,5.40
2022-09-26T10:03:12.738Z,5.27
2022-09-26T10:07:17.182Z,3.60
2022-09-26T10:11:52.346Z,3.10
2022-09-26T10:16:00.499Z,3.07
2022-09-26T10:20:02.313Z,3.00
2022-09-26T10:24:05.120Z,2.73
2022-09-26T10:28:08.707Z,2.80
2022-09-26T10:32:11.387Z,2.93
2022-09-26T10:36:24.625Z,2.20
2022-09-26T10:40:50.781Z,2.97
2022-09-26T10:45:02.466Z,2.60
2022-09-26T10:49:06.158Z,2.50
2022-09-26T10:53:14.226Z,2.77
2022-09-26T10:57:35.484Z,2.90
2022-09-26T11:01:49.825Z,2.40
2022-09-26T11:05:57.235Z,2.80
2022-09-26T11:10:01.615Z,2.97
2022-09-26T11:14:07.750Z,2.50
2022-09-26T11:18:12.672Z,2.83
2022-09-26T11:22:25.682Z,2.40
2022-09-26T11:26:41.849Z,2.30
2022-09-26T11:30:49.140Z,1.70
2022-09-26T11:34:52.322Z,2.17
2022-09-26T11:38:55.870Z,2.23
2022-09-26T11:43:17.499Z,2.60
2022-09-26T11:47:45.995Z,2.30
2022-09-26T11:52:07.545Z,3.17
2022-09-26T11:56:35.279Z,2.23
2022-09-26T12:00:53.880Z,3.50
2022-09-26T12:05:01.856Z,3.47
2022-09-26T12:09:30.597Z,2.00
2022-09-26T12:13:41.695Z,2.83
2022-09-26T12:18:06.636Z,3.43
2022-09-26T12:22:29.291Z,2.80
2022-09-26T12:26:34.387Z,2.73
2022-09-26T12:31:00.619Z,1.80
2022-09-26T12:35:22.290Z,2.37
2022-09-26T12:39:44.939Z,1.93
2022-09-26T12:43:58.531Z,2.10
2022-09-26T12:48:18.947Z,2.87
2022-09-26T12:52:27.630Z,2.00
2022-09-26T12:56:41.861Z,2.60
2022-09-26T13:00:49.864Z,2.30
2022-09-26T13:05:03.347Z,2.30
2022-09-26T13:09:23.490Z,2.03
2022-09-26T13:13:29.397Z,2.13
2022-09-26T13:17:38.055Z,2.33
2022-09-26T13:21:54.557Z,2.10
2022-09-26T13:25:59.534Z,2.60
2022-09-26T13:30:04.422Z,2.37
2022-09-26T13:34:15.399Z,2.60
2022-09-26T13:38:38.427Z,2.50
2022-09-26T13:42:43.471Z,1.93
2022-09-26T13:47:18.858Z,2.30
2022-09-26T13:51:26.850Z,1.97
2022-09-26T13:55:28.459Z,2.60
2022-09-26T13:59:35.755Z,2.63
2022-09-26T14:03:38.742Z,2.70
2022-09-26T14:08:02.293Z,3.00
2022-09-26T14:12:22.156Z,3.23
2022-09-26T14:16:30.150Z,2.57
2022-09-26T14:20:35.173Z,2.60
2022-09-26T14:24:40.844Z,2.37
2022-09-26T14:28:48.463Z,2.00
2022-09-26T14:32:51.460Z,2.60
2022-09-26T14:36:55.080Z,2.40
2022-09-26T14:40:58.346Z,2.50
2022-09-26T14:45:03.048Z,2.90
2022-09-26T14:49:06.530Z,2.33
2022-09-26T14:53:14.533Z,1.60
2022-09-26T14:57:22.480Z,1.60
2022-09-26T15:01:33.571Z,1.60
2022-09-26T15:05:34.984Z,1.70
2022-09-26T15:09:57.209Z,3.10
2022-09-26T15:14:02.179Z,1.33
2022-09-26T15:18:29.925Z,1.50
2022-09-26T15:22:31.299Z,1.80
2022-09-26T15:26:36.440Z,1.70
2022-09-26T15:30:39.463Z,1.80
2022-09-26T15:34:40.885Z,1.60
2022-09-26T15:38:47.032Z,1.80
2022-09-26T15:43:00.037Z,1.63
2022-09-26T15:47:08.049Z,1.57
2022-09-26T15:51:16.007Z,1.33
2022-09-26T15:55:20.835Z,2.30
2022-09-26T15:59:31.681Z,2.10
2022-09-26T16:03:36.648Z,1.50
2022-09-26T16:07:38.452Z,1.40
2022-09-26T16:11:49.457Z,2.00
2022-09-26T16:16:15.153Z,2.30
2022-09-26T16:20:20.205Z,1.87
2022-09-26T16:24:28.174Z,1.43
2022-09-26T16:28:41.761Z,1.83
2022-09-26T16:32:43.273Z,2.80
2022-09-26T16:36:45.146Z,2.90
2022-09-26T16:40:51.761Z,2.43
2022-09-26T16:44:56.904Z,1.50
2022-09-26T16:48:59.997Z,2.20
2022-09-26T16:53:05.658Z,7.73
2022-09-26T16:57:10.658Z,2.00
2022-09-26T17:01:30.268Z,2.27
2022-09-26T17:05:31.400Z,2.03
2022-09-26T17:09:33.425Z,2.43
2022-09-26T17:13:35.356Z,1.70
2022-09-26T17:17:37.658Z,1.80
2022-09-26T17:21:39.078Z,2.80
2022-09-26T17:25:41.573Z,1.77
2022-09-26T17:29:46.652Z,2.07
2022-09-26T17:33:51.595Z,2.30
2022-09-26T17:37:53.872Z,3.10
2022-09-26T17:41:57.469Z,2.50
2022-09-26T17:46:00.247Z,2.87
2022-09-26T17:50:01.509Z,3.37
2022-09-26T17:54:04.928Z,2.33
2022-09-26T17:58:10.055Z,2.80
2022-09-26T18:02:15.451Z,2.00
2022-09-26T18:06:19.349Z,2.07
2022-09-26T18:10:24.221Z,2.47
2022-09-26T18:14:28.912Z,3.37
2022-09-26T18:18:34.294Z,2.73
2022-09-26T18:22:35.872Z,2.40
2022-09-26T18:26:46.034Z,2.50
2022-09-26T18:30:59.673Z,3.03
2022-09-26T18:35:01.458Z,2.90
2022-09-26T18:39:03.111Z,3.27
2022-09-26T18:43:07.170Z,3.93
2022-09-26T18:47:16.984Z,4.80
2022-09-26T18:51:38.969Z,4.53
2022-09-26T18:55:58.537Z,4.37
2022-09-26T19:00:00.169Z,4.60
2022-09-26T19:04:04.360Z,4.27
2022-09-26T19:08:06.454Z,3.47
2022-09-26T19:12:11.868Z,3.77
2022-09-26T19:16:13.401Z,3.40
2022-09-26T19:20:14.785Z,3.27
2022-09-26T19:24:34.419Z,3.70
2022-09-26T19:28:35.809Z,3.33
2022-09-26T19:32:39.692Z,3.00
2022-09-26T19:36:41.151Z,2.40
2022-09-26T19:40:47.744Z,2.70
2022-09-26T19:44:45.620Z,2.93
2022-09-26T19:48:46.939Z,2.70
2022-09-26T19:52:50.900Z,2.50
2022-09-26T19:56:52.617Z,5.90
2022-09-26T20:00:57.036Z,2.60
2022-09-26T20:04:58.416Z,2.40
2022-09-26T20:09:01.931Z,2.27
2022-09-26T20:13:03.282Z,2.40
2022-09-26T20:17:14.448Z,1.77
2022-09-26T20:21:18.284Z,2.80
2022-09-26T20:25:27.071Z,2.03
2022-09-26T20:29:28.420Z,2.20
2022-09-26T20:33:29.614Z,2.17
2022-09-26T20:37:35.116Z,1.63
2022-09-26T20:41:39.188Z,2.53
2022-09-26T20:45:43.351Z,2.70
2022-09-26T20:49:51.294Z,2.47
2022-09-26T20:53:52.488Z,2.30
2022-09-26T20:57:53.662Z,1.73
2022-09-26T21:01:56.315Z,1.83
2022-09-26T21:05:57.416Z,2.23
2022-09-26T21:09:58.611Z,1.90
2022-09-26T21:13:59.783Z,2.10
2022-09-26T21:18:01.485Z,1.53
2022-09-26T21:22:03.067Z,2.00
2022-09-26T21:26:04.301Z,1.67
2022-09-26T21:30:06.119Z,1.90
2022-09-26T21:34:11.097Z,2.60
2022-09-26T21:38:12.717Z,1.90
2022-09-26T21:42:13.981Z,2.40
2022-09-26T21:46:16.595Z,2.30
2022-09-26T21:50:19.441Z,1.97
2022-09-26T21:54:24.411Z,1.90
2022-09-26T21:58:29.397Z,2.60
2022-09-26T22:02:30.612Z,1.90
2022-09-26T22:06:32.753Z,2.17
2022-09-26T22:10:36.136Z,2.33
2022-09-26T22:14:37.305Z,1.90
2022-09-26T22:18:39.786Z,1.80
2022-09-26T22:22:41.268Z,2.00
2022-09-26T22:26:42.428Z,1.63
2022-09-26T22:30:43.597Z,2.23
2022-09-26T22:34:44.787Z,2.10
2022-09-26T22:38:47.017Z,2.20
2022-09-26T22:42:50.055Z,2.00
2022-09-26T22:46:51.249Z,2.27
2022-09-26T22:50:53.905Z,2.60
2022-09-26T22:54:55.106Z,2.00
2022-09-26T22:58:56.267Z,2.03
2022-09-26T23:02:57.491Z,2.20
2022-09-26T23:06:58.654Z,1.97
2022-09-26T23:11:01.368Z,2.00
2022-09-26T23:15:03.463Z,2.03
2022-09-26T23:19:04.641Z,1.70
2022-09-26T23:23:06.855Z,1.97
2022-09-26T23:27:08.535Z,1.60
2022-09-26T23:31:10.540Z,1.80
2022-09-26T23:35:11.763Z,2.17
2022-09-26T23:39:12.953Z,1.63
2022-09-26T23:43:14.197Z,2.00
2022-09-26T23:47:15.426Z,2.73
2022-09-26T23:51:16.722Z,2.47
2022-09-26T23:55:17.918Z,1.97
2022-09-26T23:59:19.089Z,2.83
